New Orleans NAS, Louisiana
Current Conditions -  °F | °C
As of 2:02 PM on Saturday 20 Dec 2014 (Local Time) from KNBG Reporting Station
Overcast Overcast  
Wind Chill: 13°   Ceiling: 1200
Heat Index: 13°   Visibility: 10mi
Dew Point:   Wind: 8mph
Humidity: 77%   Direction: 20°NNE
Pressure: 30.09"   Gusts: NA
Location:  29.83°N, 90.02°W
Report Text: KNBG 202002Z 02007KT 10SM OVC012 13/09 A3009 RMK AO2 T01330094 $
Loading
Personal Weather Stations






























Interactive Weather Map New forecast layout! Learn more

10-Day Weather Forecast

Advertisements
Track Severe Weather on mobile